Weather at Bengkayang Airport

Public forecast

Using degrees Celsius for public forecast. Weather courtesy of forecast.io.

Closest aviation weather report (METAR) to Bengkayang Airport

Closest report is Supadio Airport, 59.3 nm (109.8 km) S.

2024/05/28 17:00 (retrieved 32 minutes ago)

WIOO 281700Z AUTO 04002KT 9999 OVC031 27/27 Q1009

Closest aviation forecast (TAF) to Bengkayang Airport

Closest forecast is Kuching International Airport, 65.3 nm (121.0 km) NE.

2024/05/28 13:18 Ammendment (retrieved 4 hours ago)

TAF AMD WBGG 281355Z 2813/2912 VRB03KT 9999 FEW020 TEMPO 2814/2818 4000 TSRA FEW015CB SCT020